sensor_id;sensor_type;location;lat;lon;timestamp;pressure;altitude;pressure_sealevel;temperature;humidity
48796;BME280;34607;48.520;-1.330;2024-01-15T08:26:45;99697.41;;;3.30;100.00
48796;BME280;34607;48.520;-1.330;2024-01-15T08:29:12;99694.28;;;3.38;100.00
48796;BME280;34607;48.520;-1.330;2024-01-15T08:31:39;99687.38;;;3.36;100.00
48796;BME280;34607;48.520;-1.330;2024-01-15T08:34:07;99704.69;;;3.43;100.00
48796;BME280;34607;48.520;-1.330;2024-01-15T08:36:40;99696.91;;;3.40;100.00
48796;BME280;34607;48.520;-1.330;2024-01-15T08:39:07;99696.00;;;3.38;100.00
48796;BME280;34607;48.520;-1.330;2024-01-15T08:41:34;99707.69;;;3.31;100.00
48796;BME280;34607;48.520;-1.330;2024-01-15T08:44:03;99718.69;;;3.29;100.00
48796;BME280;34607;48.520;-1.330;2024-01-15T08:46:30;99717.63;;;3.24;100.00
48796;BME280;34607;48.520;-1.330;2024-01-15T08:48:57;99720.06;;;3.19;100.00
48796;BME280;34607;48.520;-1.330;2024-01-15T08:51:24;99719.94;;;3.16;100.00
48796;BME280;34607;48.520;-1.330;2024-01-15T08:53:51;99721.63;;;3.15;100.00
48796;BME280;34607;48.520;-1.330;2024-01-15T08:56:18;99721.09;;;3.24;100.00
48796;BME280;34607;48.520;-1.330;2024-01-15T08:58:45;99728.34;;;3.36;100.00
48796;BME280;34607;48.520;-1.330;2024-01-15T09:01:13;99717.69;;;3.49;100.00
48796;BME280;34607;48.520;-1.330;2024-01-15T09:03:41;99722.34;;;3.61;100.00
48796;BME280;34607;48.520;-1.330;2024-01-15T09:06:08;99723.78;;;3.79;100.00
48796;BME280;34607;48.520;-1.330;2024-01-15T09:08:36;99719.78;;;3.87;100.00
48796;BME280;34607;48.520;-1.330;2024-01-15T09:11:03;99715.75;;;3.93;100.00
48796;BME280;34607;48.520;-1.330;2024-01-15T09:13:30;99693.38;;;3.88;100.00
48796;BME280;34607;48.520;-1.330;2024-01-15T09:15:58;99717.84;;;4.05;100.00
48796;BME280;34607;48.520;-1.330;2024-01-15T09:18:27;99687.69;;;3.97;100.00
48796;BME280;34607;48.520;-1.330;2024-01-15T09:20:55;99719.19;;;4.21;100.00
48796;BME280;34607;48.520;-1.330;2024-01-15T09:23:22;99715.19;;;4.29;100.00
48796;BME280;34607;48.520;-1.330;2024-01-15T09:25:49;99712.03;;;4.38;100.00
48796;BME280;34607;48.520;-1.330;2024-01-15T09:28:18;99721.53;;;4.41;100.00
48796;BME280;34607;48.520;-1.330;2024-01-15T09:30:45;99716.50;;;4.45;100.00
48796;BME280;34607;48.520;-1.330;2024-01-15T09:33:12;99718.53;;;4.54;100.00
48796;BME280;34607;48.520;-1.330;2024-01-15T09:35:41;99724.66;;;4.59;100.00
48796;BME280;34607;48.520;-1.330;2024-01-15T09:38:08;99722.16;;;4.62;100.00
48796;BME280;34607;48.520;-1.330;2024-01-15T09:40:38;99725.72;;;4.67;100.00
48796;BME280;34607;48.520;-1.330;2024-01-15T09:43:05;99731.06;;;4.74;100.00
48796;BME280;34607;48.520;-1.330;2024-01-15T09:45:33;99738.00;;;4.78;100.00
48796;BME280;34607;48.520;-1.330;2024-01-15T09:48:00;99730.09;;;4.70;100.00
48796;BME280;34607;48.520;-1.330;2024-01-15T09:50:27;99732.50;;;4.65;100.00
48796;BME280;34607;48.520;-1.330;2024-01-15T09:52:56;99731.97;;;4.76;100.00
48796;BME280;34607;48.520;-1.330;2024-01-15T09:55:23;99726.19;;;4.83;100.00
48796;BME280;34607;48.520;-1.330;2024-01-15T09:57:52;99727.75;;;4.78;100.00
48796;BME280;34607;48.520;-1.330;2024-01-15T10:00:20;99747.25;;;5.01;100.00
48796;BME280;34607;48.520;-1.330;2024-01-15T10:02:47;99737.88;;;5.03;100.00
48796;BME280;34607;48.520;-1.330;2024-01-15T10:05:15;99745.97;;;5.16;100.00
48796;BME280;34607;48.520;-1.330;2024-01-15T10:07:43;99749.06;;;5.36;100.00
48796;BME280;34607;48.520;-1.330;2024-01-15T10:10:14;99755.94;;;5.37;100.00
48796;BME280;34607;48.520;-1.330;2024-01-15T10:12:42;99764.47;;;5.36;100.00
48796;BME280;34607;48.520;-1.330;2024-01-15T10:15:09;99762.91;;;5.41;100.00
48796;BME280;34607;48.520;-1.330;2024-01-15T10:17:37;99760.56;;;5.49;100.00
48796;BME280;34607;48.520;-1.330;2024-01-15T10:20:08;99772.72;;;5.56;100.00
48796;BME280;34607;48.520;-1.330;2024-01-15T10:22:38;99762.53;;;5.59;100.00
48796;BME280;34607;48.520;-1.330;2024-01-15T10:25:06;99774.44;;;5.55;100.00
48796;BME280;34607;48.520;-1.330;2024-01-15T10:27:38;99779.69;;;5.60;100.00
48796;BME280;34607;48.520;-1.330;2024-01-15T10:30:06;99785.84;;;5.67;100.00
48796;BME280;34607;48.520;-1.330;2024-01-15T10:32:34;99741.50;;;5.40;99.98
48796;BME280;34607;48.520;-1.330;2024-01-15T10:35:01;99771.44;;;5.40;100.00
48796;BME280;34607;48.520;-1.330;2024-01-15T10:37:28;99785.00;;;5.36;100.00
48796;BME280;34607;48.520;-1.330;2024-01-15T10:39:55;99790.38;;;5.43;100.00
48796;BME280;34607;48.520;-1.330;2024-01-15T10:42:22;99785.97;;;5.71;100.00
48796;BME280;34607;48.520;-1.330;2024-01-15T10:44:50;99787.31;;;6.22;100.00
48796;BME280;34607;48.520;-1.330;2024-01-15T10:47:18;99795.38;;;6.36;100.00
48796;BME280;34607;48.520;-1.330;2024-01-15T10:49:46;99786.00;;;6.38;100.00
48796;BME280;34607;48.520;-1.330;2024-01-15T10:52:13;99785.47;;;6.51;100.00
48796;BME280;34607;48.520;-1.330;2024-01-15T10:54:41;99777.38;;;6.74;100.00
48796;BME280;34607;48.520;-1.330;2024-01-15T10:57:10;99779.06;;;7.11;100.00
48796;BME280;34607;48.520;-1.330;2024-01-15T10:59:38;99779.75;;;7.45;98.93
48796;BME280;34607;48.520;-1.330;2024-01-15T11:02:08;99782.94;;;7.79;97.17
48796;BME280;34607;48.520;-1.330;2024-01-15T11:04:36;99775.69;;;8.05;95.56
48796;BME280;34607;48.520;-1.330;2024-01-15T11:07:05;99770.81;;;8.24;94.50
48796;BME280;34607;48.520;-1.330;2024-01-15T11:09:32;99781.13;;;8.24;92.80
48796;BME280;34607;48.520;-1.330;2024-01-15T11:12:07;99765.84;;;8.35;91.64
48796;BME280;34607;48.520;-1.330;2024-01-15T11:14:38;99757.69;;;8.63;90.94
48796;BME280;34607;48.520;-1.330;2024-01-15T11:17:07;99770.13;;;8.88;90.03
48796;BME280;34607;48.520;-1.330;2024-01-15T11:19:36;99773.00;;;9.12;89.42
48796;BME280;34607;48.520;-1.330;2024-01-15T11:22:04;99778.25;;;9.20;87.94
48796;BME280;34607;48.520;-1.330;2024-01-15T11:24:35;99762.56;;;9.03;86.49
48796;BME280;34607;48.520;-1.330;2024-01-15T11:27:04;99765.88;;;8.93;86.50
48796;BME280;34607;48.520;-1.330;2024-01-15T11:29:33;99767.72;;;9.02;86.39
48796;BME280;34607;48.520;-1.330;2024-01-15T11:32:03;99772.13;;;9.10;85.33
48796;BME280;34607;48.520;-1.330;2024-01-15T11:34:59;99766.97;;;9.10;80.40
48796;BME280;34607;48.520;-1.330;2024-01-15T11:37:29;99757.78;;;9.34;83.59
48796;BME280;34607;48.520;-1.330;2024-01-15T11:40:01;99758.88;;;9.57;82.01
48796;BME280;34607;48.520;-1.330;2024-01-15T11:42:29;99766.59;;;9.53;79.30
48796;BME280;34607;48.520;-1.330;2024-01-15T11:44:57;99764.91;;;9.56;78.95
48796;BME280;34607;48.520;-1.330;2024-01-15T11:47:54;99769.88;;;9.38;77.73
48796;BME280;34607;48.520;-1.330;2024-01-15T11:50:29;99759.47;;;9.32;78.09
48796;BME280;34607;48.520;-1.330;2024-01-15T11:53:00;99763.59;;;9.17;76.71
48796;BME280;34607;48.520;-1.330;2024-01-15T11:55:30;99762.03;;;9.30;76.88
48796;BME280;34607;48.520;-1.330;2024-01-15T11:58:01;99755.34;;;9.48;76.55
48796;BME280;34607;48.520;-1.330;2024-01-15T12:00:29;99761.53;;;9.64;76.50
48796;BME280;34607;48.520;-1.330;2024-01-15T12:02:58;99760.66;;;9.60;74.32
48796;BME280;34607;48.520;-1.330;2024-01-15T12:05:29;99766.59;;;9.51;73.75
48796;BME280;34607;48.520;-1.330;2024-01-15T12:07:56;99764.53;;;9.23;73.16
48796;BME280;34607;48.520;-1.330;2024-01-15T12:10:23;99759.28;;;9.16;73.35
48796;BME280;34607;48.520;-1.330;2024-01-15T12:12:57;99775.75;;;9.25;73.58
48796;BME280;34607;48.520;-1.330;2024-01-15T12:15:26;99771.72;;;9.48;73.96
48796;BME280;34607;48.520;-1.330;2024-01-15T12:17:55;99779.38;;;9.42;72.00
48796;BME280;34607;48.520;-1.330;2024-01-15T12:20:23;99772.56;;;9.49;72.14
48796;BME280;34607;48.520;-1.330;2024-01-15T12:22:52;99774.69;;;9.84;71.99
48796;BME280;34607;48.520;-1.330;2024-01-15T12:25:20;99764.50;;;10.04;71.32
48796;BME280;34607;48.520;-1.330;2024-01-15T12:27:48;99775.34;;;9.66;70.59
48796;BME280;34607;48.520;-1.330;2024-01-15T12:30:15;99775.28;;;9.58;70.73
48796;BME280;34607;48.520;-1.330;2024-01-15T12:32:42;99769.25;;;9.61;70.25
48796;BME280;34607;48.520;-1.330;2024-01-15T12:35:10;99747.53;;;9.43;69.43
48796;BME280;34607;48.520;-1.330;2024-01-15T12:37:37;99760.88;;;9.85;70.18
48796;BME280;34607;48.520;-1.330;2024-01-15T12:40:08;99752.38;;;9.95;69.81
48796;BME280;34607;48.520;-1.330;2024-01-15T12:42:36;99757.19;;;9.61;70.17
48796;BME280;34607;48.520;-1.330;2024-01-15T12:45:05;99759.06;;;9.01;70.04
48796;BME280;34607;48.520;-1.330;2024-01-15T12:47:34;99769.50;;;8.46;69.06
48796;BME280;34607;48.520;-1.330;2024-01-15T12:50:01;99774.19;;;8.18;69.63
48796;BME280;34607;48.520;-1.330;2024-01-15T12:52:28;99778.34;;;8.12;69.24
48796;BME280;34607;48.520;-1.330;2024-01-15T12:54:56;99764.75;;;8.20;68.50
48796;BME280;34607;48.520;-1.330;2024-01-15T12:57:24;99758.28;;;8.44;66.79
48796;BME280;34607;48.520;-1.330;2024-01-15T12:59:54;99763.75;;;8.64;65.90
48796;BME280;34607;48.520;-1.330;2024-01-15T13:02:21;99766.56;;;8.79;66.15
48796;BME280;34607;48.520;-1.330;2024-01-15T13:04:49;99761.44;;;8.86;64.73
48796;BME280;34607;48.520;-1.330;2024-01-15T13:07:16;99753.34;;;8.59;64.55
48796;BME280;34607;48.520;-1.330;2024-01-15T13:09:43;99761.38;;;8.23;65.15
48796;BME280;34607;48.520;-1.330;2024-01-15T13:12:10;99767.31;;;8.20;65.43
48796;BME280;34607;48.520;-1.330;2024-01-15T13:14:39;99764.78;;;8.22;65.83
48796;BME280;34607;48.520;-1.330;2024-01-15T13:17:06;99767.34;;;8.22;65.91
48796;BME280;34607;48.520;-1.330;2024-01-15T13:19:34;99769.38;;;8.40;65.01
48796;BME280;34607;48.520;-1.330;2024-01-15T13:22:01;99770.38;;;8.47;64.76
48796;BME280;34607;48.520;-1.330;2024-01-15T13:24:29;99764.47;;;8.55;64.41
48796;BME280;34607;48.520;-1.330;2024-01-15T13:26:56;99762.38;;;8.88;65.63
48796;BME280;34607;48.520;-1.330;2024-01-15T13:29:24;99755.50;;;8.90;64.49
48796;BME280;34607;48.520;-1.330;2024-01-15T13:31:53;99755.47;;;8.87;64.13
48796;BME280;34607;48.520;-1.330;2024-01-15T13:34:20;99761.63;;;8.96;64.06
48796;BME280;34607;48.520;-1.330;2024-01-15T13:36:48;99751.31;;;8.99;64.02
48796;BME280;34607;48.520;-1.330;2024-01-15T13:39:15;99751.25;;;8.93;63.21
48796;BME280;34607;48.520;-1.330;2024-01-15T13:41:45;99742.78;;;9.05;64.29
48796;BME280;34607;48.520;-1.330;2024-01-15T13:44:13;99743.75;;;9.13;63.86
48796;BME280;34607;48.520;-1.330;2024-01-15T13:46:40;99755.09;;;9.26;63.30
48796;BME280;34607;48.520;-1.330;2024-01-15T13:49:08;99751.38;;;9.04;62.61
48796;BME280;34607;48.520;-1.330;2024-01-15T13:51:36;99744.09;;;8.72;62.86
48796;BME280;34607;48.520;-1.330;2024-01-15T13:54:03;99750.72;;;8.56;62.99
48796;BME280;34607;48.520;-1.330;2024-01-15T13:56:31;99748.75;;;8.40;62.81
48796;BME280;34607;48.520;-1.330;2024-01-15T13:58:58;99746.06;;;8.34;62.96
48796;BME280;34607;48.520;-1.330;2024-01-15T14:01:25;99749.13;;;8.11;62.96
48796;BME280;34607;48.520;-1.330;2024-01-15T14:03:52;99757.13;;;7.76;63.07
48796;BME280;34607;48.520;-1.330;2024-01-15T14:06:21;99759.88;;;7.85;64.19
48796;BME280;34607;48.520;-1.330;2024-01-15T14:08:48;99754.13;;;8.00;64.19
48796;BME280;34607;48.520;-1.330;2024-01-15T14:11:15;99752.50;;;8.09;64.03
48796;BME280;34607;48.520;-1.330;2024-01-15T14:13:42;99753.38;;;8.07;63.52
48796;BME280;34607;48.520;-1.330;2024-01-15T14:16:09;99755.59;;;7.87;62.77
48796;BME280;34607;48.520;-1.330;2024-01-15T14:18:37;99748.97;;;8.00;64.35
48796;BME280;34607;48.520;-1.330;2024-01-15T14:21:04;99744.50;;;7.92;63.58
48796;BME280;34607;48.520;-1.330;2024-01-15T14:23:33;99749.63;;;7.88;63.37
48796;BME280;34607;48.520;-1.330;2024-01-15T14:26:00;99752.78;;;7.74;64.31
48796;BME280;34607;48.520;-1.330;2024-01-15T14:28:27;99752.31;;;7.47;65.15
48796;BME280;34607;48.520;-1.330;2024-01-15T14:30:54;99760.03;;;7.47;66.05
48796;BME280;34607;48.520;-1.330;2024-01-15T14:33:23;99754.09;;;7.09;65.54
48796;BME280;34607;48.520;-1.330;2024-01-15T14:35:50;99762.78;;;7.14;66.77
48796;BME280;34607;48.520;-1.330;2024-01-15T14:38:18;99762.06;;;7.21;66.78
48796;BME280;34607;48.520;-1.330;2024-01-15T14:40:46;99757.44;;;7.03;66.69
48796;BME280;34607;48.520;-1.330;2024-01-15T14:43:13;99761.25;;;6.81;66.59
48796;BME280;34607;48.520;-1.330;2024-01-15T14:45:40;99758.53;;;6.73;67.69
48796;BME280;34607;48.520;-1.330;2024-01-15T14:48:07;99758.53;;;6.75;68.09
48796;BME280;34607;48.520;-1.330;2024-01-15T14:50:34;99763.97;;;6.87;68.40
48796;BME280;34607;48.520;-1.330;2024-01-15T14:53:01;99747.66;;;6.88;68.48
48796;BME280;34607;48.520;-1.330;2024-01-15T14:55:29;99753.66;;;6.87;68.45
48796;BME280;34607;48.520;-1.330;2024-01-15T14:57:59;99763.75;;;6.78;68.06
48796;BME280;34607;48.520;-1.330;2024-01-15T15:00:26;99769.13;;;6.87;68.55
48796;BME280;34607;48.520;-1.330;2024-01-15T15:02:53;99764.63;;;6.80;67.58
48796;BME280;34607;48.520;-1.330;2024-01-15T15:05:20;99755.78;;;6.67;66.68
48796;BME280;34607;48.520;-1.330;2024-01-15T15:07:47;99760.03;;;6.65;66.75
48796;BME280;34607;48.520;-1.330;2024-01-15T15:10:14;99765.91;;;6.60;66.62
48796;BME280;34607;48.520;-1.330;2024-01-15T15:12:41;99768.19;;;6.47;66.52
48796;BME280;34607;48.520;-1.330;2024-01-15T15:15:11;99779.13;;;6.38;66.87
48796;BME280;34607;48.520;-1.330;2024-01-15T15:17:39;99787.34;;;6.24;67.72
48796;BME280;34607;48.520;-1.330;2024-01-15T15:20:07;99792.44;;;5.89;69.08
48796;BME280;34607;48.520;-1.330;2024-01-15T15:22:34;99784.97;;;5.96;69.70
48796;BME280;34607;48.520;-1.330;2024-01-15T15:25:01;99787.53;;;5.98;69.43
48796;BME280;34607;48.520;-1.330;2024-01-15T15:27:28;99797.81;;;5.98;69.48
48796;BME280;34607;48.520;-1.330;2024-01-15T15:29:55;99797.56;;;5.89;69.88
48796;BME280;34607;48.520;-1.330;2024-01-15T15:32:24;99798.25;;;5.81;69.93
48796;BME280;34607;48.520;-1.330;2024-01-15T15:34:51;99794.81;;;5.81;70.35
48796;BME280;34607;48.520;-1.330;2024-01-15T15:37:18;99796.63;;;5.85;70.62
48796;BME280;34607;48.520;-1.330;2024-01-15T15:39:45;99784.50;;;5.79;70.86
48796;BME280;34607;48.520;-1.330;2024-01-15T15:42:12;99796.56;;;5.84;71.00
48796;BME280;34607;48.520;-1.330;2024-01-15T15:44:39;99794.69;;;5.76;71.07
48796;BME280;34607;48.520;-1.330;2024-01-15T15:47:12;99793.72;;;5.73;71.17
48796;BME280;34607;48.520;-1.330;2024-01-15T15:49:41;99793.28;;;5.56;71.55
48796;BME280;34607;48.520;-1.330;2024-01-15T15:52:08;99788.84;;;5.50;71.60
48796;BME280;34607;48.520;-1.330;2024-01-15T15:54:36;99793.00;;;5.47;72.03
48796;BME280;34607;48.520;-1.330;2024-01-15T15:57:03;99785.16;;;5.40;72.08
48796;BME280;34607;48.520;-1.330;2024-01-15T15:59:30;99789.53;;;5.44;72.19
48796;BME280;34607;48.520;-1.330;2024-01-15T16:01:57;99798.94;;;5.44;71.81
48796;BME280;34607;48.520;-1.330;2024-01-15T16:04:24;99800.88;;;5.53;72.17
48796;BME280;34607;48.520;-1.330;2024-01-15T16:06:53;99802.41;;;5.46;72.17
48796;BME280;34607;48.520;-1.330;2024-01-15T16:09:20;99808.97;;;5.36;72.14
48796;BME280;34607;48.520;-1.330;2024-01-15T16:11:48;99798.19;;;5.18;71.91
48796;BME280;34607;48.520;-1.330;2024-01-15T16:14:16;99813.56;;;5.16;71.91
48796;BME280;34607;48.520;-1.330;2024-01-15T16:16:43;99816.03;;;5.13;71.92
48796;BME280;34607;48.520;-1.330;2024-01-15T16:19:10;99819.34;;;5.09;71.76
48796;BME280;34607;48.520;-1.330;2024-01-15T16:21:37;99820.78;;;5.01;71.55
48796;BME280;34607;48.520;-1.330;2024-01-15T16:24:06;99821.91;;;5.09;71.91
48796;BME280;34607;48.520;-1.330;2024-01-15T16:26:33;99825.97;;;5.02;71.32
48796;BME280;34607;48.520;-1.330;2024-01-15T16:29:04;99818.19;;;4.99;71.33
48796;BME280;34607;48.520;-1.330;2024-01-15T16:31:31;99826.47;;;4.91;71.42
48796;BME280;34607;48.520;-1.330;2024-01-15T16:33:58;99833.75;;;4.77;71.88
48796;BME280;34607;48.520;-1.330;2024-01-15T16:36:25;99824.84;;;4.65;72.02
48796;BME280;34607;48.520;-1.330;2024-01-15T16:38:52;99827.28;;;4.62;71.92
48796;BME280;34607;48.520;-1.330;2024-01-15T16:41:21;99833.78;;;4.51;72.05
48796;BME280;34607;48.520;-1.330;2024-01-15T16:43:48;99843.88;;;4.46;72.37
48796;BME280;34607;48.520;-1.330;2024-01-15T16:46:15;99840.06;;;4.34;72.29
48796;BME280;34607;48.520;-1.330;2024-01-15T16:48:41;99833.19;;;4.32;72.47
48796;BME280;34607;48.520;-1.330;2024-01-15T16:51:08;99839.69;;;4.23;72.28
48796;BME280;34607;48.520;-1.330;2024-01-15T16:53:35;99843.66;;;4.13;72.21
48796;BME280;34607;48.520;-1.330;2024-01-15T16:56:02;99845.72;;;4.25;72.76
48796;BME280;34607;48.520;-1.330;2024-01-15T16:58:31;99847.25;;;4.18;72.56
48796;BME280;34607;48.520;-1.330;2024-01-15T17:00:58;99848.84;;;4.16;72.88
48796;BME280;34607;48.520;-1.330;2024-01-15T17:03:25;99855.16;;;4.26;73.03
48796;BME280;34607;48.520;-1.330;2024-01-15T17:05:52;99845.59;;;4.20;72.27
48796;BME280;34607;48.520;-1.330;2024-01-15T17:08:19;99852.38;;;4.20;72.40
48796;BME280;34607;48.520;-1.330;2024-01-15T17:10:46;99859.09;;;4.16;72.55
48796;BME280;34607;48.520;-1.330;2024-01-15T17:13:13;99864.66;;;4.03;72.55
48796;BME280;34607;48.520;-1.330;2024-01-15T17:15:42;99859.56;;;4.04;73.14
48796;BME280;34607;48.520;-1.330;2024-01-15T17:18:09;99871.06;;;3.91;72.75
48796;BME280;34607;48.520;-1.330;2024-01-15T17:20:36;99872.84;;;3.94;72.80
48796;BME280;34607;48.520;-1.330;2024-01-15T17:23:05;99865.16;;;3.92;72.58
48796;BME280;34607;48.520;-1.330;2024-01-15T17:25:32;99861.50;;;3.86;72.66
48796;BME280;34607;48.520;-1.330;2024-01-15T17:28:00;99861.94;;;3.74;72.79
48796;BME280;34607;48.520;-1.330;2024-01-15T17:30:28;99861.56;;;3.65;73.54
48796;BME280;34607;48.520;-1.330;2024-01-15T17:32:57;99871.00;;;3.66;73.42
48796;BME280;34607;48.520;-1.330;2024-01-15T17:35:25;99876.00;;;3.63;73.77
48796;BME280;34607;48.520;-1.330;2024-01-15T17:37:52;99878.41;;;3.58;73.38
48796;BME280;34607;48.520;-1.330;2024-01-15T17:40:19;99881.91;;;3.60;73.59
48796;BME280;34607;48.520;-1.330;2024-01-15T17:42:48;99883.59;;;3.60;73.76
48796;BME280;34607;48.520;-1.330;2024-01-15T17:45:16;99862.59;;;3.46;73.55
48796;BME280;34607;48.520;-1.330;2024-01-15T17:47:44;99878.84;;;3.46;73.38
48796;BME280;34607;48.520;-1.330;2024-01-15T17:50:12;99882.22;;;3.45;73.54
48796;BME280;34607;48.520;-1.330;2024-01-15T17:52:39;99881.56;;;3.51;73.75
48796;BME280;34607;48.520;-1.330;2024-01-15T17:55:07;99884.94;;;3.50;73.98
48796;BME280;34607;48.520;-1.330;2024-01-15T17:57:34;99880.38;;;3.41;74.01
48796;BME280;34607;48.520;-1.330;2024-01-15T18:00:03;99890.13;;;3.29;73.61
48796;BME280;34607;48.520;-1.330;2024-01-15T18:02:33;99888.00;;;3.18;74.09
48796;BME280;34607;48.520;-1.330;2024-01-15T18:05:00;99898.25;;;3.18;74.06
48796;BME280;34607;48.520;-1.330;2024-01-15T18:07:29;99895.81;;;3.22;74.00
48796;BME280;34607;48.520;-1.330;2024-01-15T18:09:56;99897.97;;;3.11;73.95
48796;BME280;34607;48.520;-1.330;2024-01-15T18:12:24;99901.19;;;3.07;74.41
48796;BME280;34607;48.520;-1.330;2024-01-15T18:14:51;99887.31;;;3.00;74.43
48796;BME280;34607;48.520;-1.330;2024-01-15T18:17:19;99894.41;;;3.07;74.32
48796;BME280;34607;48.520;-1.330;2024-01-15T18:19:46;99894.56;;;3.10;74.56
48796;BME280;34607;48.520;-1.330;2024-01-15T18:22:13;99893.50;;;3.05;74.60
48796;BME280;34607;48.520;-1.330;2024-01-15T18:24:42;99904.97;;;2.94;74.73
48796;BME280;34607;48.520;-1.330;2024-01-15T18:27:09;99906.28;;;2.84;74.52
48796;BME280;34607;48.520;-1.330;2024-01-15T18:29:37;99909.78;;;2.86;74.69
48796;BME280;34607;48.520;-1.330;2024-01-15T18:32:05;99919.25;;;2.89;75.11
48796;BME280;34607;48.520;-1.330;2024-01-15T18:34:32;99899.50;;;2.85;74.91
48796;BME280;34607;48.520;-1.330;2024-01-15T18:36:59;99912.66;;;2.94;74.71
48796;BME280;34607;48.520;-1.330;2024-01-15T18:39:26;99911.78;;;2.72;74.22
48796;BME280;34607;48.520;-1.330;2024-01-15T18:41:54;99929.56;;;2.69;74.88
48796;BME280;34607;48.520;-1.330;2024-01-15T18:44:22;99926.03;;;2.67;75.13
48796;BME280;34607;48.520;-1.330;2024-01-15T18:46:49;99919.16;;;2.65;75.07
48796;BME280;34607;48.520;-1.330;2024-01-15T18:49:16;99924.31;;;2.66;75.41
48796;BME280;34607;48.520;-1.330;2024-01-15T18:51:45;99920.78;;;2.62;75.22
48796;BME280;34607;48.520;-1.330;2024-01-15T18:54:12;99924.06;;;2.60;74.99
48796;BME280;34607;48.520;-1.330;2024-01-15T18:56:40;99906.22;;;2.40;75.24
48796;BME280;34607;48.520;-1.330;2024-01-15T18:59:09;99924.25;;;2.43;74.92
48796;BME280;34607;48.520;-1.330;2024-01-15T19:01:38;99903.25;;;2.31;75.06
48796;BME280;34607;48.520;-1.330;2024-01-15T19:04:05;99922.97;;;2.34;74.75
48796;BME280;34607;48.520;-1.330;2024-01-15T19:06:32;99919.50;;;2.32;75.00
48796;BME280;34607;48.520;-1.330;2024-01-15T19:08:59;99924.66;;;2.33;74.89
48796;BME280;34607;48.520;-1.330;2024-01-15T19:11:26;99923.97;;;2.37;74.79
48796;BME280;34607;48.520;-1.330;2024-01-15T19:13:53;99919.88;;;2.41;75.02
48796;BME280;34607;48.520;-1.330;2024-01-15T19:16:22;99925.47;;;2.32;74.69
48796;BME280;34607;48.520;-1.330;2024-01-15T19:18:49;99925.19;;;2.26;75.00
48796;BME280;34607;48.520;-1.330;2024-01-15T19:21:16;99925.41;;;2.31;75.07
48796;BME280;34607;48.520;-1.330;2024-01-15T19:23:44;99933.19;;;2.34;75.21
48796;BME280;34607;48.520;-1.330;2024-01-15T19:26:16;99935.06;;;2.38;75.32
48796;BME280;34607;48.520;-1.330;2024-01-15T19:28:43;99938.31;;;2.34;75.08
48796;BME280;34607;48.520;-1.330;2024-01-15T19:31:10;99944.22;;;2.33;74.85
48796;BME280;34607;48.520;-1.330;2024-01-15T19:33:39;99943.34;;;2.32;75.11
48796;BME280;34607;48.520;-1.330;2024-01-15T19:36:07;99943.47;;;2.35;75.11
48796;BME280;34607;48.520;-1.330;2024-01-15T19:38:34;99941.41;;;2.27;75.35
48796;BME280;34607;48.520;-1.330;2024-01-15T19:41:01;99953.28;;;2.26;75.40
48796;BME280;34607;48.520;-1.330;2024-01-15T19:43:28;99941.34;;;2.25;75.45
48796;BME280;34607;48.520;-1.330;2024-01-15T19:45:55;99958.69;;;2.32;75.23
48796;BME280;34607;48.520;-1.330;2024-01-15T19:48:22;99960.75;;;2.41;75.55
48796;BME280;34607;48.520;-1.330;2024-01-15T19:50:51;99954.91;;;2.43;75.02
48796;BME280;34607;48.520;-1.330;2024-01-15T19:53:19;99956.41;;;2.38;75.17
48796;BME280;34607;48.520;-1.330;2024-01-15T19:55:46;99958.00;;;2.36;75.06
48796;BME280;34607;48.520;-1.330;2024-01-15T19:58:13;99959.63;;;2.34;75.24
48796;BME280;34607;48.520;-1.330;2024-01-15T20:00:40;99959.03;;;2.40;75.56
48796;BME280;34607;48.520;-1.330;2024-01-15T20:03:07;99947.38;;;2.27;75.01
48796;BME280;34607;48.520;-1.330;2024-01-15T20:05:34;99953.13;;;2.21;75.48
48796;BME280;34607;48.520;-1.330;2024-01-15T20:08:03;99952.97;;;2.18;75.80
48796;BME280;34607;48.520;-1.330;2024-01-15T20:10:31;99952.69;;;2.12;75.92
48796;BME280;34607;48.520;-1.330;2024-01-15T20:13:00;99941.34;;;2.05;75.95
48796;BME280;34607;48.520;-1.330;2024-01-15T20:15:28;99941.22;;;2.02;75.95
48796;BME280;34607;48.520;-1.330;2024-01-15T20:17:56;99942.22;;;2.06;76.05
48796;BME280;34607;48.520;-1.330;2024-01-15T20:20:23;99938.19;;;1.92;76.35
48796;BME280;34607;48.520;-1.330;2024-01-15T20:22:50;99944.66;;;1.83;76.51
48796;BME280;34607;48.520;-1.330;2024-01-15T20:25:20;99943.69;;;1.81;76.73
48796;BME280;34607;48.520;-1.330;2024-01-15T20:27:47;99941.88;;;1.79;77.06
48796;BME280;34607;48.520;-1.330;2024-01-15T20:30:14;99958.06;;;1.79;77.02
48796;BME280;34607;48.520;-1.330;2024-01-15T20:32:41;99961.56;;;1.81;77.14
48796;BME280;34607;48.520;-1.330;2024-01-15T20:35:08;99962.44;;;1.82;76.97
48796;BME280;34607;48.520;-1.330;2024-01-15T20:37:35;99972.13;;;1.89;77.15
48796;BME280;34607;48.520;-1.330;2024-01-15T20:40:03;99974.69;;;1.89;76.65
48796;BME280;34607;48.520;-1.330;2024-01-15T20:42:32;99979.34;;;1.80;76.69
48796;BME280;34607;48.520;-1.330;2024-01-15T20:44:59;99974.19;;;1.78;77.06
48796;BME280;34607;48.520;-1.330;2024-01-15T20:47:27;99974.25;;;1.80;77.17
48796;BME280;34607;48.520;-1.330;2024-01-15T20:49:54;99972.91;;;1.88;76.97
48796;BME280;34607;48.520;-1.330;2024-01-15T20:52:21;99968.34;;;1.81;76.88
48796;BME280;34607;48.520;-1.330;2024-01-15T20:54:48;99968.13;;;1.76;76.87
48796;BME280;34607;48.520;-1.330;2024-01-15T20:57:15;99961.22;;;1.74;77.35
48796;BME280;34607;48.520;-1.330;2024-01-15T20:59:44;99962.16;;;1.76;76.94
48796;BME280;34607;48.520;-1.330;2024-01-15T21:02:11;99960.41;;;1.75;77.28
48796;BME280;34607;48.520;-1.330;2024-01-15T21:04:38;99963.91;;;1.77;77.46
48796;BME280;34607;48.520;-1.330;2024-01-15T21:07:05;99965.19;;;1.86;77.17
48796;BME280;34607;48.520;-1.330;2024-01-15T21:09:33;99962.56;;;1.85;76.84
48796;BME280;34607;48.520;-1.330;2024-01-15T21:12:02;99965.78;;;1.81;76.87
48796;BME280;34607;48.520;-1.330;2024-01-15T21:14:30;99968.88;;;1.74;77.39
48796;BME280;34607;48.520;-1.330;2024-01-15T21:16:59;99958.53;;;1.71;77.45
48796;BME280;34607;48.520;-1.330;2024-01-15T21:19:26;99962.69;;;1.68;77.58
48796;BME280;34607;48.520;-1.330;2024-01-15T21:21:53;99978.66;;;1.64;77.32
48796;BME280;34607;48.520;-1.330;2024-01-15T21:24:21;99968.97;;;1.57;77.77
48796;BME280;34607;48.520;-1.330;2024-01-15T21:26:53;99964.00;;;1.60;77.81